Limon, CO

8:12 AM MST on December 26, 2014 (GMT -0700)
Limon, CO | Change Station
CLOSE
Current Station
Personal Weather Station
Location: Limon, CO
Elevation: 5361 ft
Nearby Weather Stations

Elev 5361 ft 39.27 °N, 103.68 °W | Updated 6 minutes ago

Light Snow
Light Snow Mist
17.9 °F
Feels Like 6 °F
N
11.0
Wind Variable Wind from NNE
Gusts 12.0 mph

Today
High -- | Low -- °F
--% Chance of Precip.
Yesterday
High -- | Low -- °F
Precip. -- in
7:13 AM 4:37 PM
Waxing Crescent, 26% visible
Pressure 30.02 in
Visibility 1.8 miles
Clouds Overcast 1400 ft
Windchill 6 °F
Dew Point 16 °F
Humidity 90%
Rainfall 0.00 in
Snow Depth Not available.
UV 0 out of 12
Pollen .10 out of 12
Air Quality Not available.
Flu Activity Not available.
METAR KLIC 261455Z AUTO 35012KT 1 3/4SM -SN BR OVC014 M08/M10 A2992 RMK AO2 SLP166 P0001 60001 T10831100 51013

More Conditions Fewer Conditions

Pressure 30.02 in
Visibility 1.8 miles
Clouds Overcast 1400 ft
Windchill 6 °F
Dew Point 16 °F
Humidity 90%
Rainfall 0.00 in
Snow Depth Not available.
UV 0 out of 12
Pollen .10 out of 12
Air Quality Not available.
Flu Activity Not available.
METAR KLIC 261455Z AUTO 35012KT 1 3/4SM -SN BR OVC014 M08/M10 A2992 RMK AO2 SLP166 P0001 60001 T10831100 51013

More Conditions Fewer Conditions

10-Day Weather Forecast

Almanac

Astronomy

Dec. 26, 2014 Rise Set
Actual Time
Civil Twilight
Nautical Twilight
Astronomical Twilight
Moon
Length of Visible Light
Length of Day
Tomorrow will be .
, % of the Moon is Illuminated

Today's Extremes

State Highs State Lows

Community

WunderPhotos

Upload Photos

1,780,609 photos uploaded!

WunderBlogs® & News

Nearby

Air Quality

  Air Quality AQ Index Pollutant
Not available.

Snow Depth

Station Depth Elevation

Earthquake Activity

City Distance Mag. Time & Date
Minimum magnitude displayed is 2.5.

Coastal Water Temperatures

Place Temperature

Nearby Weather Stations